Current Conditions
Scattered
Clouds



Pressure
1014.9 (hPa) - 29.97 (inHG)
Visibility

9.7 (km) - 6.0 (miles)
Temperature
21  °C
Temperature
20  °C
Dewpoint
94  %
 Humidity
Wind Speed
8  km/h
4  kts
5  mph
2.2  m/s
Wind Direction
N
45°
E
90°
135°
S
180°
225°
W
270°
315°
 150°

South South
East
Airport Data
YBBN
Brisbane International Airport
Metar :YBBN 181400Z AUTO 15004KT 9999 // SCT017 SCT072 21/20 Q1015
Fri 19th April 00:00 am
Raw Metar Info
Raw METAR is the most common format in the world for the transmission of observational weather data. It is highly standardized through the International Civil Aviation Organization (ICAO), which allows it to be understood throughout most of the world.
API Info
Data Provided by
https://www.checkwx.com/weather/YBBN

Aviation Weather providing METAR, TAF, AIRMET, SIGMET and OUTLOOK Weather Reports
© Info
CSS/SVG/PHP scripts were developed by weather34 for use in the weather34 template © 2015-2024

Guide Info provided by Metar-Wikipedia